Terminal Aerodrome Forecast
Issued by NWS Lake Charles, LA

Home | Current Version | Previous Version | Text Only | Print | Product List | Glossary On
Versions: 1 2 3 4 5 6 7 8 9 10 11 12 13 14 15 16 17 18 19 20 21
000
FTUS44 KLCH 200500
TAFLCH
TAF
KLCH 200520Z 2006/2106 05003KT P6SM FEW025
      TEMPO 2009/2013 4SM BR
     FM201500 08011KT P6SM SCT035
     FM210100 08004KT P6SM SKC=

USA.gov is the U.S. government's official web portal to all federal, state and local government web resources and services.